createdAt,value
2019-02-05T00:06:30.787Z,1.7
2019-02-05T00:11:59.492Z,1.7
2019-02-05T00:17:30.023Z,1.8
2019-02-05T00:22:55.070Z,1.8
2019-02-05T00:28:23.765Z,1.8
2019-02-05T00:33:52.485Z,1.9
2019-02-05T00:39:20.357Z,1.9
2019-02-05T00:44:49.044Z,1.9
2019-02-05T00:50:16.912Z,2
2019-02-05T00:55:45.541Z,2
2019-02-05T01:01:15.393Z,2.1
2019-02-05T01:06:42.156Z,2.1
2019-02-05T01:12:10.989Z,2.1
2019-02-05T01:17:39.771Z,2.1
2019-02-05T01:23:08.526Z,2.1
2019-02-05T01:28:37.368Z,2.2
2019-02-05T01:34:06.134Z,2.2
2019-02-05T01:39:34.924Z,2.2
2019-02-05T01:45:03.089Z,2.3
2019-02-05T01:50:30.605Z,2.3
2019-02-05T01:55:59.323Z,2.3
2019-02-05T02:01:27.143Z,2.4
2019-02-05T02:06:55.964Z,2.4
2019-02-05T02:12:23.757Z,2.4
2019-02-05T02:17:52.570Z,2.4
2019-02-05T02:23:21.363Z,2.4
2019-02-05T02:28:48.219Z,2.4
2019-02-05T02:34:15.991Z,2.4
2019-02-05T02:39:43.754Z,2.4
2019-02-05T02:45:11.556Z,2.4
2019-02-05T02:50:40.381Z,2.5
2019-02-05T02:56:08.220Z,2.5
2019-02-05T03:01:36.070Z,2.5
2019-02-05T03:07:03.846Z,2.5
2019-02-05T03:12:32.603Z,2.5
2019-02-05T03:18:00.458Z,2.5
2019-02-05T03:23:29.278Z,2.5
2019-02-05T03:28:58.111Z,2.5
2019-02-05T03:34:26.863Z,2.6
2019-02-05T03:39:54.700Z,2.6
2019-02-05T03:45:23.577Z,2.6
2019-02-05T03:50:51.385Z,2.7
2019-02-05T03:56:20.322Z,2.7
2019-02-05T04:01:49.096Z,2.7
2019-02-05T04:07:17.856Z,2.7
2019-02-05T04:12:45.734Z,2.7
2019-02-05T04:18:16.711Z,2.7
2019-02-05T04:23:41.623Z,2.7
2019-02-05T04:29:09.098Z,2.7
2019-02-05T04:34:36.900Z,2.8
2019-02-05T04:40:05.830Z,2.8
2019-02-05T04:45:34.425Z,2.8
2019-02-05T04:51:01.467Z,2.8
2019-02-05T04:56:29.220Z,2.8
2019-02-05T05:01:57.070Z,2.8
2019-02-05T05:07:25.910Z,2.8
2019-02-05T05:12:54.760Z,2.8
2019-02-05T05:18:22.643Z,2.8
2019-02-05T05:23:51.558Z,2.8
2019-02-05T05:29:19.332Z,2.8
2019-02-05T05:34:47.117Z,2.8
2019-02-05T05:40:15.964Z,2.8
2019-02-05T05:45:44.784Z,2.7
2019-02-05T05:51:12.630Z,2.7
2019-02-05T05:56:40.640Z,2.7
2019-02-05T06:02:08.249Z,2.7
2019-02-05T06:07:37.091Z,2.7
2019-02-05T06:13:05.893Z,2.7
2019-02-05T06:18:33.796Z,2.7
2019-02-05T06:24:02.582Z,2.8
2019-02-05T06:29:30.470Z,2.8
2019-02-05T06:34:58.324Z,2.8
2019-02-05T06:40:26.049Z,2.8
2019-02-05T06:45:53.819Z,2.8
2019-02-05T06:51:22.633Z,2.8
2019-02-05T06:56:50.459Z,2.8
2019-02-05T07:02:18.270Z,2.8
2019-02-05T07:07:46.084Z,2.8
2019-02-05T07:13:14.992Z,2.8
2019-02-05T07:18:43.745Z,2.9
2019-02-05T07:24:12.603Z,2.9
2019-02-05T07:29:40.398Z,2.9
2019-02-05T07:35:09.338Z,2.9
2019-02-05T07:40:38.107Z,2.9
2019-02-05T07:46:05.935Z,3
2019-02-05T07:51:34.750Z,3
2019-02-05T07:57:03.588Z,3
2019-02-05T08:02:34.405Z,3.1
2019-02-05T08:08:01.301Z,3.1
2019-02-05T08:13:30.277Z,3.1
2019-02-05T08:18:59.045Z,3.2
2019-02-05T08:24:26.849Z,3.2
2019-02-05T08:29:54.824Z,3.3
2019-02-05T08:35:23.667Z,3.3
2019-02-05T08:40:52.578Z,3.4
2019-02-05T08:46:20.962Z,3.4
2019-02-05T08:51:48.454Z,3.4
2019-02-05T08:57:16.545Z,3.5
2019-02-05T09:02:44.945Z,3.5
2019-02-05T09:08:14.309Z,3.6
2019-02-05T09:13:42.722Z,3.6
2019-02-05T09:19:11.752Z,3.6
2019-02-05T09:24:39.497Z,3.7
2019-02-05T09:30:07.371Z,3.7
2019-02-05T09:35:35.370Z,3.8
2019-02-05T09:41:04.139Z,3.8
2019-02-05T09:46:32.017Z,3.9
2019-02-05T09:52:00.928Z,4
2019-02-05T09:57:30.425Z,4
2019-02-05T10:02:58.332Z,4.1
2019-02-05T10:08:25.674Z,4.2
2019-02-05T10:13:53.601Z,4.2
2019-02-05T10:19:22.552Z,4.3
2019-02-05T10:24:50.678Z,4.3
2019-02-05T10:30:19.437Z,4.3
2019-02-05T10:35:48.447Z,4.3
2019-02-05T10:41:16.325Z,4.3
2019-02-05T10:46:45.243Z,4.3
2019-02-05T10:52:14.185Z,4.3
2019-02-05T10:57:43.144Z,4.4
2019-02-05T11:03:11.110Z,4.4
2019-02-05T11:08:39.066Z,4.5
2019-02-05T11:14:08.066Z,4.5
2019-02-05T11:19:37.110Z,4.5
2019-02-05T11:25:04.995Z,4.6
2019-02-05T11:30:32.954Z,4.6
2019-02-05T11:36:00.954Z,4.7
2019-02-05T11:41:28.830Z,4.7
2019-02-05T11:46:56.876Z,4.7
2019-02-05T11:52:24.812Z,4.8
2019-02-05T11:57:52.893Z,4.9
2019-02-05T12:03:20.737Z,4.9
2019-02-05T12:08:48.672Z,5
2019-02-05T12:14:17.755Z,5
2019-02-05T12:19:45.661Z,4.9
2019-02-05T12:25:15.325Z,4.9
2019-02-05T12:30:45.242Z,4.8
2019-02-05T12:36:10.572Z,4.8
2019-02-05T12:41:39.621Z,4.8
2019-02-05T12:47:08.679Z,4.8
2019-02-05T12:52:36.493Z,4.8
2019-02-05T12:58:04.587Z,4.7
2019-02-05T13:03:32.498Z,4.7
2019-02-05T13:09:00.411Z,4.7
2019-02-05T13:14:28.477Z,4.8
2019-02-05T13:19:56.326Z,4.8
2019-02-05T13:25:25.339Z,4.8
2019-02-05T13:30:53.389Z,4.8
2019-02-05T13:36:22.802Z,4.8
2019-02-05T13:41:51.201Z,4.9
2019-02-05T13:47:21.339Z,4.9
2019-02-05T13:52:48.172Z,4.9
2019-02-05T13:58:17.135Z,4.9
2019-02-05T14:03:45.117Z,4.9
2019-02-05T14:09:14.157Z,4.9
2019-02-05T14:14:42.078Z,4.8
2019-02-05T14:20:11.214Z,4.8
2019-02-05T14:25:40.100Z,4.9
2019-02-05T14:31:08.096Z,4.9
2019-02-05T14:36:37.010Z,4.9
2019-02-05T14:42:05.080Z,4.9
2019-02-05T14:47:34.003Z,4.9
2019-02-05T14:53:01.912Z,4.8
2019-02-05T14:58:29.905Z,4.8
2019-02-05T15:03:57.875Z,4.8
2019-02-05T15:09:26.817Z,4.8
2019-02-05T15:14:55.093Z,4.8
2019-02-05T15:20:23.782Z,4.8
2019-02-05T15:25:52.708Z,4.7
2019-02-05T15:31:20.704Z,4.7
2019-02-05T15:36:48.685Z,4.7
2019-02-05T15:42:16.595Z,4.7
2019-02-05T15:47:45.597Z,4.7
2019-02-05T15:53:13.540Z,4.6
2019-02-05T15:58:42.506Z,4.6
2019-02-05T16:04:11.417Z,4.6
2019-02-05T16:09:40.657Z,4.5
2019-02-05T16:15:09.306Z,4.5
2019-02-05T16:20:38.232Z,4.5
2019-02-05T16:26:07.126Z,4.5
2019-02-05T16:31:36.078Z,4.4
2019-02-05T16:37:05.067Z,4.4
2019-02-05T16:42:33.938Z,4.4
2019-02-05T16:48:03.691Z,4.3
2019-02-05T16:53:30.820Z,4.2
2019-02-05T16:58:58.681Z,4
2019-02-05T17:04:26.559Z,3.9
2019-02-05T17:09:55.464Z,3.8
2019-02-05T17:15:23.268Z,3.8
2019-02-05T17:20:52.215Z,3.8
2019-02-05T17:26:20.091Z,3.8
2019-02-05T17:31:48.912Z,3.8
2019-02-05T17:37:17.796Z,3.8
2019-02-05T17:42:46.650Z,3.8
2019-02-05T17:48:14.556Z,3.7
2019-02-05T17:53:42.409Z,3.7
2019-02-05T17:59:10.418Z,3.7
2019-02-05T18:04:38.140Z,3.6
2019-02-05T18:10:06.153Z,3.6
2019-02-05T18:15:33.878Z,3.5
2019-02-05T18:21:01.712Z,3.5
2019-02-05T18:26:30.564Z,3.4
2019-02-05T18:31:59.393Z,3.3
2019-02-05T18:37:27.190Z,3.3
2019-02-05T18:42:55.042Z,3.3
2019-02-05T18:48:22.909Z,3.2
2019-02-05T18:53:50.764Z,3.2
2019-02-05T18:59:18.579Z,3.2
2019-02-05T19:04:48.228Z,3.2
2019-02-05T19:10:16.357Z,3.3
2019-02-05T19:15:44.094Z,3.3
2019-02-05T19:21:12.967Z,3.3
2019-02-05T19:26:41.768Z,3.3
2019-02-05T19:32:09.614Z,3.3
2019-02-05T19:37:37.467Z,3.3
2019-02-05T19:43:06.311Z,3.3
2019-02-05T19:48:34.139Z,3.3
2019-02-05T19:54:01.932Z,3.3
2019-02-05T19:59:30.569Z,3.3
2019-02-05T20:04:58.637Z,3.3
2019-02-05T20:10:26.534Z,3.3
2019-02-05T20:15:54.341Z,3.3
2019-02-05T20:21:23.172Z,3.2
2019-02-05T20:26:51.996Z,3.2
2019-02-05T20:32:19.817Z,3.2
2019-02-05T20:37:47.670Z,3.2
2019-02-05T20:43:16.528Z,3.2
2019-02-05T20:48:44.798Z,3.2
2019-02-05T20:54:13.155Z,3.1
2019-02-05T20:59:40.960Z,3.1
2019-02-05T21:05:08.803Z,3.1
2019-02-05T21:10:36.610Z,3.1
2019-02-05T21:16:05.425Z,3.1
2019-02-05T21:21:34.304Z,3.2
2019-02-05T21:27:02.081Z,3.2
2019-02-05T21:32:30.916Z,3.2
2019-02-05T21:37:58.758Z,3.2
2019-02-05T21:43:26.568Z,3.2
2019-02-05T21:48:54.409Z,3.2
2019-02-05T21:54:22.222Z,3.2
2019-02-05T21:59:50.760Z,3.2
2019-02-05T22:05:18.916Z,3.2
2019-02-05T22:10:47.743Z,3.2
2019-02-05T22:16:15.613Z,3.3
2019-02-05T22:21:43.442Z,3.3
2019-02-05T22:27:11.395Z,3.3
2019-02-05T22:32:40.319Z,3.3
2019-02-05T22:38:08.182Z,3.3
2019-02-05T22:43:35.803Z,3.4
2019-02-05T22:49:03.772Z,3.4
2019-02-05T22:54:31.468Z,3.3
2019-02-05T22:59:59.383Z,3.3
2019-02-05T23:05:27.169Z,3.3
2019-02-05T23:11:02.997Z,3.3
2019-02-05T23:16:22.901Z,3.3
2019-02-05T23:21:50.685Z,3.4
2019-02-05T23:27:18.613Z,3.4
2019-02-05T23:32:46.457Z,3.4
2019-02-05T23:38:14.371Z,3.3
2019-02-05T23:43:43.107Z,3.3
2019-02-05T23:49:11.953Z,3.3
2019-02-05T23:54:39.874Z,3.2
